Time,TemperatureF,DewpointF,PressureIn,WindDirection,WindDirectionDegrees,WindSpeedMPH,WindSpeedGustMPH,Humidity,HourlyPrecipIn,Conditions,Clouds,dailyrainin,SoftwareType,DateUTC
2013-03-05 00:01:00,17.3,9.0,25.93,WNW,297,9.0,21.0,69,0.00,,,0.00,weatherlink.com 1.10,2013-03-05 07:01:00,
2013-03-05 00:16:00,16.9,8.0,25.93,NNW,343,10.0,20.0,69,0.00,,,0.00,weatherlink.com 1.10,2013-03-05 07:16:00,
2013-03-05 00:31:00,16.8,9.0,25.93,West,262,7.0,17.0,70,0.00,,,0.00,weatherlink.com 1.10,2013-03-05 07:31:00,
2013-03-05 00:46:00,16.4,8.0,25.94,NNW,348,8.0,20.0,70,0.00,,,0.00,weatherlink.com 1.10,2013-03-05 07:46:00,
2013-03-05 01:01:00,16.3,8.0,25.93,WNW,295,8.0,19.0,71,0.00,,,0.00,weatherlink.com 1.10,2013-03-05 08:01:00,
2013-03-05 01:16:00,16.3,9.0,25.93,NNW,336,7.0,23.0,72,0.00,,,0.00,weatherlink.com 1.10,2013-03-05 08:16:00,
2013-03-05 01:31:00,16.2,9.0,25.94,North,352,11.0,23.0,72,0.00,,,0.00,weatherlink.com 1.10,2013-03-05 08:31:00,
2013-03-05 01:46:00,15.7,9.0,25.93,NNW,327,13.0,17.0,73,0.00,,,0.00,weatherlink.com 1.10,2013-03-05 08:46:00,
2013-03-05 02:01:00,15.6,9.0,25.94,North,349,4.0,20.0,74,0.00,,,0.00,weatherlink.com 1.10,2013-03-05 09:01:00,
2013-03-05 02:16:00,15.5,9.0,25.95,NW,307,8.0,17.0,75,0.00,,,0.00,weatherlink.com 1.10,2013-03-05 09:16:00,
2013-03-05 02:31:00,15.9,8.0,25.94,NNW,344,14.0,22.0,72,0.00,,,0.00,weatherlink.com 1.10,2013-03-05 09:31:00,
2013-03-05 02:46:00,16.2,8.0,25.95,WNW,285,10.0,21.0,71,0.00,,,0.00,weatherlink.com 1.10,2013-03-05 09:46:00,
2013-03-05 03:01:00,16.3,8.0,25.94,ENE,64,14.0,19.0,70,0.00,,,0.00,weatherlink.com 1.10,2013-03-05 10:01:00,
2013-03-05 03:16:00,16.7,8.0,25.94,NNW,347,14.0,18.0,68,0.00,,,0.00,weatherlink.com 1.10,2013-03-05 10:16:00,
2013-03-05 03:31:00,16.7,7.0,25.95,NNW,332,9.0,19.0,67,0.00,,,0.00,weatherlink.com 1.10,2013-03-05 10:31:00,
2013-03-05 03:46:00,16.6,7.0,25.95,NW,311,9.0,19.0,67,0.00,,,0.00,weatherlink.com 1.10,2013-03-05 10:46:00,
2013-03-05 04:01:00,16.5,8.0,25.95,North,352,10.0,15.0,68,0.00,,,0.00,weatherlink.com 1.10,2013-03-05 11:01:00,
2013-03-05 04:16:00,16.1,8.0,25.95,North,350,6.0,16.0,69,0.00,,,0.00,weatherlink.com 1.10,2013-03-05 11:16:00,
2013-03-05 04:32:00,15.7,8.0,25.95,NNW,338,8.0,20.0,70,0.00,,,0.00,weatherlink.com 1.10,2013-03-05 11:32:00,
2013-03-05 04:47:00,16.0,7.0,25.95,North,354,10.0,18.0,69,0.00,,,0.00,weatherlink.com 1.10,2013-03-05 11:47:00,
2013-03-05 05:02:00,15.8,7.0,25.95,NNW,330,9.0,16.0,69,0.00,,,0.00,weatherlink.com 1.10,2013-03-05 12:02:00,
2013-03-05 05:17:00,15.9,7.0,25.95,NNE,31,12.0,12.0,68,0.00,,,0.00,weatherlink.com 1.10,2013-03-05 12:17:00,
2013-03-05 05:32:00,16.2,7.0,25.96,ENE,58,8.0,15.0,67,0.00,,,0.00,weatherlink.com 1.10,2013-03-05 12:32:00,
2013-03-05 05:47:00,15.6,7.0,25.96,NNE,32,9.0,14.0,69,0.00,,,0.00,weatherlink.com 1.10,2013-03-05 12:47:00,
2013-03-05 06:02:00,14.9,7.0,25.97,NNW,334,4.0,14.0,70,0.00,,,0.00,weatherlink.com 1.10,2013-03-05 13:02:00,
2013-03-05 06:17:00,14.1,7.0,25.97,WNW,283,2.0,12.0,73,0.00,,,0.00,weatherlink.com 1.10,2013-03-05 13:17:00,
2013-03-05 06:32:00,13.5,6.0,25.98,SW,220,3.0,4.0,73,0.00,,,0.00,weatherlink.com 1.10,2013-03-05 13:32:00,
2013-03-05 06:47:00,13.1,7.0,25.98,NW,319,1.0,2.0,75,0.00,,,0.00,weatherlink.com 1.10,2013-03-05 13:47:00,
2013-03-05 07:02:00,14.4,7.0,25.97,NNE,16,6.0,8.0,73,0.00,,,0.00,weatherlink.com 1.10,2013-03-05 14:02:00,
2013-03-05 07:17:00,16.1,8.0,25.97,North,353,9.0,9.0,71,0.00,,,0.00,weatherlink.com 1.10,2013-03-05 14:17:00,
2013-03-05 07:32:00,18.1,9.0,25.98,NE,46,6.0,8.0,68,0.00,,,0.00,weatherlink.com 1.10,2013-03-05 14:32:00,
2013-03-05 07:47:00,18.9,9.0,25.99,NE,41,8.0,12.0,65,0.00,,,0.00,weatherlink.com 1.10,2013-03-05 14:47:00,
2013-03-05 08:02:00,20.4,9.0,26.00,North,8,6.0,10.0,62,0.00,,,0.00,weatherlink.com 1.10,2013-03-05 15:02:00,
2013-03-05 08:17:00,21.3,9.0,26.00,NNE,26,6.0,12.0,59,0.00,,,0.00,weatherlink.com 1.10,2013-03-05 15:17:00,
2013-03-05 08:32:00,22.3,9.0,26.00,North,360,5.0,13.0,57,0.00,,,0.00,weatherlink.com 1.10,2013-03-05 15:32:00,
2013-03-05 08:47:00,24.0,9.0,26.00,NNW,345,6.0,13.0,53,0.00,,,0.00,weatherlink.com 1.10,2013-03-05 15:47:00,
2013-03-05 09:02:00,24.6,9.0,26.00,NNW,338,8.0,13.0,52,0.00,,,0.00,weatherlink.com 1.10,2013-03-05 16:02:00,
2013-03-05 09:17:00,25.4,9.0,26.00,NE,37,7.0,15.0,49,0.00,,,0.00,weatherlink.com 1.10,2013-03-05 16:17:00,
2013-03-05 09:32:00,26.9,10.0,26.00,NNE,20,7.0,15.0,49,0.00,,,0.00,weatherlink.com 1.10,2013-03-05 16:32:00,
2013-03-05 09:47:00,27.1,8.0,26.01,NNW,335,6.0,12.0,44,0.00,,,0.00,weatherlink.com 1.10,2013-03-05 16:47:00,
2013-03-05 10:02:00,28.4,8.0,26.00,West,278,6.0,14.0,43,0.00,,,0.00,weatherlink.com 1.10,2013-03-05 17:02:00,
2013-03-05 10:18:00,29.3,9.0,26.00,SW,218,2.0,8.0,43,0.00,,,0.00,weatherlink.com 1.10,2013-03-05 17:18:00,
2013-03-05 10:33:00,30.4,9.0,26.00,NW,325,6.0,8.0,40,0.00,,,0.00,weatherlink.com 1.10,2013-03-05 17:33:00,
2013-03-05 10:48:00,31.0,8.0,26.00,NE,34,3.0,7.0,38,0.00,,,0.00,weatherlink.com 1.10,2013-03-05 17:48:00,
2013-03-05 11:03:00,32.3,9.0,26.00,NNW,343,3.0,9.0,38,0.00,,,0.00,weatherlink.com 1.10,2013-03-05 18:03:00,
2013-03-05 11:18:00,32.3,7.0,25.99,NE,41,2.0,8.0,35,0.00,,,0.00,weatherlink.com 1.10,2013-03-05 18:18:00,
2013-03-05 11:33:00,33.6,7.0,25.99,WNW,297,1.0,7.0,32,0.00,,,0.00,weatherlink.com 1.10,2013-03-05 18:33:00,
2013-03-05 11:48:00,34.3,7.0,25.99,NNE,20,4.0,9.0,32,0.00,,,0.00,weatherlink.com 1.10,2013-03-05 18:48:00,
2013-03-05 12:03:00,33.9,5.0,25.98,ENE,74,5.0,7.0,29,0.00,,,0.00,weatherlink.com 1.10,2013-03-05 19:03:00,
2013-03-05 12:18:00,35.8,7.0,25.98,NNE,18,6.0,10.0,30,0.00,,,0.00,weatherlink.com 1.10,2013-03-05 19:18:00,
2013-03-05 12:33:00,35.2,7.0,25.97,WNW,297,8.0,10.0,30,0.00,,,0.00,weatherlink.com 1.10,2013-03-05 19:33:00,
2013-03-05 12:48:00,36.3,7.0,25.96,East,89,3.0,7.0,30,0.00,,,0.00,weatherlink.com 1.10,2013-03-05 19:48:00,
2013-03-05 13:03:00,37.4,7.0,25.96,West,259,2.0,6.0,28,0.00,,,0.00,weatherlink.com 1.10,2013-03-05 20:03:00,
2013-03-05 13:18:00,37.5,9.0,25.95,NW,322,3.0,8.0,30,0.00,,,0.00,weatherlink.com 1.10,2013-03-05 20:18:00,
2013-03-05 13:33:00,37.6,8.0,25.95,NNW,334,3.0,9.0,29,0.00,,,0.00,weatherlink.com 1.10,2013-03-05 20:33:00,
2013-03-05 13:48:00,38.0,9.0,25.95,NE,41,3.0,9.0,30,0.00,,,0.00,weatherlink.com 1.10,2013-03-05 20:48:00,
2013-03-05 14:03:00,39.4,8.0,25.94,West,262,3.0,4.0,27,0.00,,,0.00,weatherlink.com 1.10,2013-03-05 21:03:00,
2013-03-05 14:18:00,38.7,7.0,25.94,SSW,197,1.0,7.0,27,0.00,,,0.00,weatherlink.com 1.10,2013-03-05 21:18:00,
2013-03-05 14:33:00,39.8,8.0,25.94,East,79,0.0,2.0,27,0.00,,,0.00,weatherlink.com 1.10,2013-03-05 21:33:00,
2013-03-05 14:48:00,38.7,8.0,25.93,ENE,71,4.0,7.0,28,0.00,,,0.00,weatherlink.com 1.10,2013-03-05 21:48:00,
2013-03-05 15:03:00,39.7,9.0,25.93,NE,41,3.0,6.0,28,0.00,,,0.00,weatherlink.com 1.10,2013-03-05 22:03:00,
2013-03-05 15:18:00,41.3,8.0,25.93,WNW,291,0.0,4.0,25,0.00,,,0.00,weatherlink.com 1.10,2013-03-05 22:18:00,
2013-03-05 15:33:00,41.7,8.0,25.93,SSE,150,2.0,6.0,25,0.00,,,0.00,weatherlink.com 1.10,2013-03-05 22:33:00,
2013-03-05 15:48:00,39.6,7.0,25.93,East,89,2.0,5.0,26,0.00,,,0.00,weatherlink.com 1.10,2013-03-05 22:48:00,
2013-03-05 16:03:00,38.9,7.0,25.92,SSE,153,5.0,9.0,27,0.00,,,0.00,weatherlink.com 1.10,2013-03-05 23:03:00,
2013-03-05 16:18:00,38.2,7.0,25.92,East,96,3.0,6.0,27,0.00,,,0.00,weatherlink.com 1.10,2013-03-05 23:18:00,
2013-03-05 16:33:00,38.0,7.0,25.92,SSE,150,6.0,10.0,28,0.00,,,0.00,weatherlink.com 1.10,2013-03-05 23:33:00,
2013-03-05 16:48:00,37.9,7.0,25.93,SE,131,7.0,10.0,28,0.00,,,0.00,weatherlink.com 1.10,2013-03-05 23:48:00,
2013-03-05 17:03:00,37.4,8.0,25.93,SSE,158,7.0,10.0,29,0.00,,,0.00,weatherlink.com 1.10,2013-03-06 00:03:00,
2013-03-05 17:19:00,36.0,8.0,25.93,SE,125,6.0,11.0,31,0.00,,,0.00,weatherlink.com 1.10,2013-03-06 00:19:00,
2013-03-05 17:33:00,34.0,8.0,25.93,SE,136,5.0,7.0,33,0.00,,,0.00,weatherlink.com 1.10,2013-03-06 00:33:00,
2013-03-05 17:48:00,31.4,7.0,25.93,SE,131,4.0,7.0,36,0.00,,,0.00,weatherlink.com 1.10,2013-03-06 00:48:00,
2013-03-05 18:03:00,29.6,7.0,25.92,SE,146,4.0,8.0,39,0.00,,,0.00,weatherlink.com 1.10,2013-03-06 01:03:00,
2013-03-05 18:19:00,28.1,7.0,25.93,ESE,113,5.0,6.0,41,0.00,,,0.00,weatherlink.com 1.10,2013-03-06 01:19:00,
2013-03-05 18:33:00,27.7,7.0,25.92,SSE,148,6.0,8.0,42,0.00,,,0.00,weatherlink.com 1.10,2013-03-06 01:33:00,
2013-03-05 18:48:00,26.5,7.0,25.92,SSE,150,5.0,8.0,44,0.00,,,0.00,weatherlink.com 1.10,2013-03-06 01:48:00,
2013-03-05 19:03:00,25.3,8.0,25.92,SSE,156,5.0,7.0,47,0.00,,,0.00,weatherlink.com 1.10,2013-03-06 02:03:00,
2013-03-05 19:18:00,24.7,8.0,25.92,SE,131,5.0,7.0,49,0.00,,,0.00,weatherlink.com 1.10,2013-03-06 02:18:00,
2013-03-05 19:33:00,24.2,8.0,25.92,South,190,4.0,7.0,50,0.00,,,0.00,weatherlink.com 1.10,2013-03-06 02:33:00,
2013-03-05 19:48:00,23.2,8.0,25.92,SSE,164,3.0,5.0,52,0.00,,,0.00,weatherlink.com 1.10,2013-03-06 02:48:00,
2013-03-05 20:03:00,22.3,8.0,25.93,SSE,160,5.0,6.0,54,0.00,,,0.00,weatherlink.com 1.10,2013-03-06 03:03:00,
2013-03-05 20:18:00,22.6,9.0,25.92,SE,142,7.0,9.0,56,0.00,,,0.00,weatherlink.com 1.10,2013-03-06 03:18:00,
2013-03-05 20:33:00,22.6,10.0,25.92,SSE,158,5.0,9.0,58,0.00,,,0.00,weatherlink.com 1.10,2013-03-06 03:33:00,
2013-03-05 20:48:00,22.1,10.0,25.93,SSE,157,9.0,9.0,60,0.00,,,0.00,weatherlink.com 1.10,2013-03-06 03:48:00,
2013-03-05 21:03:00,21.7,10.0,25.92,SSE,156,6.0,8.0,61,0.00,,,0.00,weatherlink.com 1.10,2013-03-06 04:03:00,
2013-03-05 21:18:00,21.0,10.0,25.93,SSE,160,6.0,8.0,62,0.00,,,0.00,weatherlink.com 1.10,2013-03-06 04:18:00,
2013-03-05 21:33:00,20.3,10.0,25.92,SE,139,5.0,7.0,65,0.00,,,0.00,weatherlink.com 1.10,2013-03-06 04:33:00,
2013-03-05 21:48:00,19.7,10.0,25.92,SSW,193,5.0,7.0,67,0.00,,,0.00,weatherlink.com 1.10,2013-03-06 04:48:00,
2013-03-05 22:04:00,19.7,11.0,25.92,South,178,7.0,10.0,69,0.00,,,0.00,weatherlink.com 1.10,2013-03-06 05:04:00,
2013-03-05 22:19:00,20.0,11.0,25.92,SSE,158,6.0,9.0,68,0.00,,,0.00,weatherlink.com 1.10,2013-03-06 05:19:00,
2013-03-05 22:34:00,20.9,12.0,25.92,SE,146,8.0,13.0,68,0.00,,,0.00,weatherlink.com 1.10,2013-03-06 05:34:00,
2013-03-05 22:49:00,21.5,12.0,25.92,SSE,148,8.0,14.0,67,0.00,,,0.00,weatherlink.com 1.10,2013-03-06 05:49:00,
2013-03-05 23:04:00,21.2,12.0,25.91,SSE,151,6.0,13.0,68,0.00,,,0.00,weatherlink.com 1.10,2013-03-06 06:04:00,
2013-03-05 23:19:00,21.2,12.0,25.91,SSE,153,11.0,13.0,69,0.00,,,0.00,weatherlink.com 1.10,2013-03-06 06:19:00,
2013-03-05 23:34:00,20.6,12.0,25.91,SSE,163,8.0,12.0,70,0.00,,,0.00,weatherlink.com 1.10,2013-03-06 06:34:00,
2013-03-05 23:49:00,20.4,13.0,25.91,SSW,210,10.0,14.0,72,0.00,,,0.00,weatherlink.com 1.10,2013-03-06 06:49:00,